sensor_id;sensor_type;location;lat;lon;timestamp;P1;durP1;ratioP1;P2;durP2;ratioP2
55469;SDS011;41334;47.872;16.384;2022-07-29T00:01:50;3.45;;;2.60;;
55469;SDS011;41334;47.872;16.384;2022-07-29T00:04:53;2.53;;;2.33;;
55469;SDS011;41334;47.872;16.384;2022-07-29T00:07:55;3.75;;;2.72;;
55469;SDS011;41334;47.872;16.384;2022-07-29T00:10:57;3.83;;;2.60;;
55469;SDS011;41334;47.872;16.384;2022-07-29T00:13:59;6.60;;;2.53;;
55469;SDS011;41334;47.872;16.384;2022-07-29T00:17:01;4.32;;;2.33;;
55469;SDS011;41334;47.872;16.384;2022-07-29T00:20:03;3.70;;;2.55;;
55469;SDS011;41334;47.872;16.384;2022-07-29T00:23:05;2.80;;;2.30;;
55469;SDS011;41334;47.872;16.384;2022-07-29T00:26:13;4.63;;;2.65;;
55469;SDS011;41334;47.872;16.384;2022-07-29T00:29:15;6.40;;;3.17;;
55469;SDS011;41334;47.872;16.384;2022-07-29T00:32:34;6.35;;;3.47;;
55469;SDS011;41334;47.872;16.384;2022-07-29T00:35:36;3.70;;;2.90;;
55469;SDS011;41334;47.872;16.384;2022-07-29T00:38:48;4.70;;;3.15;;
55469;SDS011;41334;47.872;16.384;2022-07-29T00:41:50;5.30;;;3.03;;
55469;SDS011;41334;47.872;16.384;2022-07-29T00:44:53;4.95;;;3.08;;
55469;SDS011;41334;47.872;16.384;2022-07-29T00:47:55;5.63;;;3.22;;
55469;SDS011;41334;47.872;16.384;2022-07-29T00:50:57;5.53;;;3.90;;
55469;SDS011;41334;47.872;16.384;2022-07-29T00:54:01;4.22;;;2.95;;
55469;SDS011;41334;47.872;16.384;2022-07-29T00:57:04;4.03;;;3.17;;
55469;SDS011;41334;47.872;16.384;2022-07-29T01:00:09;4.45;;;3.15;;
55469;SDS011;41334;47.872;16.384;2022-07-29T01:03:13;6.82;;;3.63;;
55469;SDS011;41334;47.872;16.384;2022-07-29T01:06:16;4.78;;;3.45;;
55469;SDS011;41334;47.872;16.384;2022-07-29T01:09:18;5.15;;;3.95;;
55469;SDS011;41334;47.872;16.384;2022-07-29T01:12:40;4.05;;;3.40;;
55469;SDS011;41334;47.872;16.384;2022-07-29T01:16:15;4.93;;;3.45;;
55469;SDS011;41334;47.872;16.384;2022-07-29T01:23:07;5.30;;;3.10;;
55469;SDS011;41334;47.872;16.384;2022-07-29T01:29:53;4.63;;;3.25;;
55469;SDS011;41334;47.872;16.384;2022-07-29T01:32:59;4.28;;;3.53;;
55469;SDS011;41334;47.872;16.384;2022-07-29T01:36:05;5.60;;;3.25;;
55469;SDS011;41334;47.872;16.384;2022-07-29T01:39:14;6.63;;;3.35;;
55469;SDS011;41334;47.872;16.384;2022-07-29T01:45:41;4.68;;;3.30;;
55469;SDS011;41334;47.872;16.384;2022-07-29T01:48:50;4.68;;;3.30;;
55469;SDS011;41334;47.872;16.384;2022-07-29T01:52:05;4.47;;;3.30;;
55469;SDS011;41334;47.872;16.384;2022-07-29T01:55:19;5.80;;;3.70;;
55469;SDS011;41334;47.872;16.384;2022-07-29T01:58:26;5.07;;;3.22;;
55469;SDS011;41334;47.872;16.384;2022-07-29T02:01:31;5.75;;;3.67;;
55469;SDS011;41334;47.872;16.384;2022-07-29T02:04:35;4.88;;;3.65;;
55469;SDS011;41334;47.872;16.384;2022-07-29T02:07:38;5.70;;;3.50;;
55469;SDS011;41334;47.872;16.384;2022-07-29T02:10:43;6.68;;;3.58;;
55469;SDS011;41334;47.872;16.384;2022-07-29T02:13:46;6.50;;;3.60;;
55469;SDS011;41334;47.872;16.384;2022-07-29T02:16:51;4.00;;;3.55;;
55469;SDS011;41334;47.872;16.384;2022-07-29T02:19:56;9.52;;;3.55;;
55469;SDS011;41334;47.872;16.384;2022-07-29T02:23:01;4.70;;;3.40;;
55469;SDS011;41334;47.872;16.384;2022-07-29T02:26:03;5.45;;;3.97;;
55469;SDS011;41334;47.872;16.384;2022-07-29T02:29:06;6.65;;;3.80;;
55469;SDS011;41334;47.872;16.384;2022-07-29T02:32:09;6.18;;;3.88;;
55469;SDS011;41334;47.872;16.384;2022-07-29T02:35:15;7.10;;;4.07;;
55469;SDS011;41334;47.872;16.384;2022-07-29T02:38:18;4.72;;;3.53;;
55469;SDS011;41334;47.872;16.384;2022-07-29T02:41:47;8.55;;;4.00;;
55469;SDS011;41334;47.872;16.384;2022-07-29T02:44:51;4.22;;;3.47;;
55469;SDS011;41334;47.872;16.384;2022-07-29T02:47:53;6.07;;;3.92;;
55469;SDS011;41334;47.872;16.384;2022-07-29T02:51:01;9.82;;;3.95;;
55469;SDS011;41334;47.872;16.384;2022-07-29T02:54:08;4.88;;;4.03;;
55469;SDS011;41334;47.872;16.384;2022-07-29T02:57:15;5.15;;;4.20;;
55469;SDS011;41334;47.872;16.384;2022-07-29T03:00:33;6.60;;;4.55;;
55469;SDS011;41334;47.872;16.384;2022-07-29T03:03:38;4.93;;;4.22;;
55469;SDS011;41334;47.872;16.384;2022-07-29T03:06:41;5.68;;;4.30;;
55469;SDS011;41334;47.872;16.384;2022-07-29T03:09:45;7.57;;;4.57;;
55469;SDS011;41334;47.872;16.384;2022-07-29T03:12:48;6.05;;;3.92;;
55469;SDS011;41334;47.872;16.384;2022-07-29T03:15:51;6.97;;;4.40;;
55469;SDS011;41334;47.872;16.384;2022-07-29T03:18:53;7.78;;;4.47;;
55469;SDS011;41334;47.872;16.384;2022-07-29T03:21:56;5.35;;;4.03;;
55469;SDS011;41334;47.872;16.384;2022-07-29T03:25:06;6.60;;;4.28;;
55469;SDS011;41334;47.872;16.384;2022-07-29T03:28:09;7.38;;;4.63;;
55469;SDS011;41334;47.872;16.384;2022-07-29T03:31:11;9.40;;;4.75;;
55469;SDS011;41334;47.872;16.384;2022-07-29T03:34:13;5.57;;;4.60;;
55469;SDS011;41334;47.872;16.384;2022-07-29T03:37:15;7.82;;;4.80;;
55469;SDS011;41334;47.872;16.384;2022-07-29T03:40:21;6.75;;;4.72;;
55469;SDS011;41334;47.872;16.384;2022-07-29T03:43:28;6.75;;;4.72;;
55469;SDS011;41334;47.872;16.384;2022-07-29T03:46:34;6.95;;;5.07;;
55469;SDS011;41334;47.872;16.384;2022-07-29T03:49:38;6.38;;;4.78;;
55469;SDS011;41334;47.872;16.384;2022-07-29T03:52:42;7.97;;;5.63;;
55469;SDS011;41334;47.872;16.384;2022-07-29T03:55:47;6.70;;;5.07;;
55469;SDS011;41334;47.872;16.384;2022-07-29T03:58:52;8.10;;;4.95;;
55469;SDS011;41334;47.872;16.384;2022-07-29T04:01:55;8.13;;;5.35;;
55469;SDS011;41334;47.872;16.384;2022-07-29T04:04:59;8.15;;;5.13;;
55469;SDS011;41334;47.872;16.384;2022-07-29T04:08:01;9.32;;;5.43;;
55469;SDS011;41334;47.872;16.384;2022-07-29T04:11:03;11.27;;;5.70;;
55469;SDS011;41334;47.872;16.384;2022-07-29T04:14:06;8.02;;;5.82;;
55469;SDS011;41334;47.872;16.384;2022-07-29T04:17:08;7.15;;;5.45;;
55469;SDS011;41334;47.872;16.384;2022-07-29T04:20:10;17.83;;;5.50;;
55469;SDS011;41334;47.872;16.384;2022-07-29T04:23:14;9.50;;;5.97;;
55469;SDS011;41334;47.872;16.384;2022-07-29T04:26:17;9.18;;;5.53;;
55469;SDS011;41334;47.872;16.384;2022-07-29T04:29:19;7.18;;;5.53;;
55469;SDS011;41334;47.872;16.384;2022-07-29T04:32:21;6.63;;;5.15;;
55469;SDS011;41334;47.872;16.384;2022-07-29T04:35:23;6.90;;;5.15;;
55469;SDS011;41334;47.872;16.384;2022-07-29T04:38:25;7.80;;;5.30;;
55469;SDS011;41334;47.872;16.384;2022-07-29T04:41:27;8.40;;;5.15;;
55469;SDS011;41334;47.872;16.384;2022-07-29T04:44:33;6.78;;;5.18;;
55469;SDS011;41334;47.872;16.384;2022-07-29T04:50:42;6.47;;;4.72;;
55469;SDS011;41334;47.872;16.384;2022-07-29T04:53:43;6.30;;;4.75;;
55469;SDS011;41334;47.872;16.384;2022-07-29T04:56:45;5.10;;;4.47;;
55469;SDS011;41334;47.872;16.384;2022-07-29T04:59:48;6.70;;;4.35;;
55469;SDS011;41334;47.872;16.384;2022-07-29T05:02:50;5.03;;;3.75;;
55469;SDS011;41334;47.872;16.384;2022-07-29T05:05:56;5.50;;;4.13;;
55469;SDS011;41334;47.872;16.384;2022-07-29T05:08:58;6.30;;;4.18;;
55469;SDS011;41334;47.872;16.384;2022-07-29T05:12:00;5.65;;;4.40;;
55469;SDS011;41334;47.872;16.384;2022-07-29T05:15:02;5.65;;;4.05;;
55469;SDS011;41334;47.872;16.384;2022-07-29T05:18:04;6.47;;;4.75;;
55469;SDS011;41334;47.872;16.384;2022-07-29T05:21:06;6.03;;;4.50;;
55469;SDS011;41334;47.872;16.384;2022-07-29T05:24:07;4.93;;;3.60;;
55469;SDS011;41334;47.872;16.384;2022-07-29T05:27:09;6.22;;;3.65;;
55469;SDS011;41334;47.872;16.384;2022-07-29T05:30:11;6.32;;;3.60;;
55469;SDS011;41334;47.872;16.384;2022-07-29T05:33:13;6.45;;;3.97;;
55469;SDS011;41334;47.872;16.384;2022-07-29T05:36:35;5.18;;;4.22;;
55469;SDS011;41334;47.872;16.384;2022-07-29T05:39:36;8.75;;;4.00;;
55469;SDS011;41334;47.872;16.384;2022-07-29T05:42:51;5.88;;;4.18;;
55469;SDS011;41334;47.872;16.384;2022-07-29T05:45:53;5.22;;;3.58;;
55469;SDS011;41334;47.872;16.384;2022-07-29T05:48:54;7.07;;;4.22;;
55469;SDS011;41334;47.872;16.384;2022-07-29T05:51:56;5.45;;;3.67;;
55469;SDS011;41334;47.872;16.384;2022-07-29T05:54:59;5.88;;;4.05;;
55469;SDS011;41334;47.872;16.384;2022-07-29T05:58:04;5.57;;;3.83;;
55469;SDS011;41334;47.872;16.384;2022-07-29T06:01:05;9.05;;;4.07;;
55469;SDS011;41334;47.872;16.384;2022-07-29T06:04:08;6.80;;;3.30;;
55469;SDS011;41334;47.872;16.384;2022-07-29T06:07:09;4.65;;;3.33;;
55469;SDS011;41334;47.872;16.384;2022-07-29T06:10:12;11.10;;;3.55;;
55469;SDS011;41334;47.872;16.384;2022-07-29T06:13:14;6.05;;;3.42;;
55469;SDS011;41334;47.872;16.384;2022-07-29T06:16:17;4.88;;;3.90;;
55469;SDS011;41334;47.872;16.384;2022-07-29T06:19:30;5.28;;;3.30;;
55469;SDS011;41334;47.872;16.384;2022-07-29T06:22:32;3.97;;;2.88;;
55469;SDS011;41334;47.872;16.384;2022-07-29T06:25:34;6.78;;;3.55;;
55469;SDS011;41334;47.872;16.384;2022-07-29T06:28:37;8.27;;;3.78;;
55469;SDS011;41334;47.872;16.384;2022-07-29T06:31:39;5.20;;;3.50;;
55469;SDS011;41334;47.872;16.384;2022-07-29T06:34:41;5.40;;;3.20;;
55469;SDS011;41334;47.872;16.384;2022-07-29T06:37:46;8.30;;;3.33;;
55469;SDS011;41334;47.872;16.384;2022-07-29T06:40:49;7.20;;;3.10;;
55469;SDS011;41334;47.872;16.384;2022-07-29T06:44:04;4.68;;;3.25;;
55469;SDS011;41334;47.872;16.384;2022-07-29T06:47:06;5.50;;;3.78;;
55469;SDS011;41334;47.872;16.384;2022-07-29T06:50:08;4.90;;;3.50;;
55469;SDS011;41334;47.872;16.384;2022-07-29T06:53:13;6.22;;;3.00;;
55469;SDS011;41334;47.872;16.384;2022-07-29T06:56:15;7.63;;;3.80;;
55469;SDS011;41334;47.872;16.384;2022-07-29T06:59:17;6.00;;;3.33;;
55469;SDS011;41334;47.872;16.384;2022-07-29T07:02:18;7.30;;;4.15;;
55469;SDS011;41334;47.872;16.384;2022-07-29T07:05:20;5.20;;;3.28;;
55469;SDS011;41334;47.872;16.384;2022-07-29T07:08:22;6.00;;;3.90;;
55469;SDS011;41334;47.872;16.384;2022-07-29T07:11:25;5.53;;;3.80;;
55469;SDS011;41334;47.872;16.384;2022-07-29T07:14:26;5.18;;;3.67;;
55469;SDS011;41334;47.872;16.384;2022-07-29T07:17:29;6.82;;;3.70;;
55469;SDS011;41334;47.872;16.384;2022-07-29T07:20:31;7.80;;;3.55;;
55469;SDS011;41334;47.872;16.384;2022-07-29T07:23:33;4.93;;;3.63;;
55469;SDS011;41334;47.872;16.384;2022-07-29T07:26:35;7.55;;;4.25;;
55469;SDS011;41334;47.872;16.384;2022-07-29T07:29:37;4.72;;;3.88;;
55469;SDS011;41334;47.872;16.384;2022-07-29T07:32:44;6.50;;;3.70;;
55469;SDS011;41334;47.872;16.384;2022-07-29T07:35:46;4.78;;;3.72;;
55469;SDS011;41334;47.872;16.384;2022-07-29T07:38:48;5.25;;;3.63;;
55469;SDS011;41334;47.872;16.384;2022-07-29T07:41:50;7.03;;;3.40;;
55469;SDS011;41334;47.872;16.384;2022-07-29T07:44:52;6.82;;;4.10;;
55469;SDS011;41334;47.872;16.384;2022-07-29T07:48:13;5.35;;;3.47;;
55469;SDS011;41334;47.872;16.384;2022-07-29T07:51:15;5.80;;;3.60;;
55469;SDS011;41334;47.872;16.384;2022-07-29T07:54:17;7.32;;;3.50;;
55469;SDS011;41334;47.872;16.384;2022-07-29T07:57:21;7.70;;;4.30;;
55469;SDS011;41334;47.872;16.384;2022-07-29T08:00:23;5.75;;;3.63;;
55469;SDS011;41334;47.872;16.384;2022-07-29T08:03:24;5.07;;;3.35;;
55469;SDS011;41334;47.872;16.384;2022-07-29T08:06:26;4.72;;;3.47;;
55469;SDS011;41334;47.872;16.384;2022-07-29T08:09:28;12.85;;;4.05;;
55469;SDS011;41334;47.872;16.384;2022-07-29T08:12:31;7.40;;;3.80;;
55469;SDS011;41334;47.872;16.384;2022-07-29T08:15:33;7.28;;;4.00;;
55469;SDS011;41334;47.872;16.384;2022-07-29T08:18:35;4.65;;;3.65;;
55469;SDS011;41334;47.872;16.384;2022-07-29T08:21:37;8.88;;;3.80;;
55469;SDS011;41334;47.872;16.384;2022-07-29T08:24:39;6.40;;;3.53;;
55469;SDS011;41334;47.872;16.384;2022-07-29T08:27:57;8.77;;;3.72;;
55469;SDS011;41334;47.872;16.384;2022-07-29T08:31:00;4.97;;;3.90;;
55469;SDS011;41334;47.872;16.384;2022-07-29T08:34:02;7.68;;;3.63;;
55469;SDS011;41334;47.872;16.384;2022-07-29T08:37:05;4.05;;;3.50;;
55469;SDS011;41334;47.872;16.384;2022-07-29T08:40:07;5.85;;;3.85;;
55469;SDS011;41334;47.872;16.384;2022-07-29T08:43:09;8.85;;;3.72;;
55469;SDS011;41334;47.872;16.384;2022-07-29T08:46:11;8.77;;;3.90;;
55469;SDS011;41334;47.872;16.384;2022-07-29T08:49:13;8.45;;;3.38;;
55469;SDS011;41334;47.872;16.384;2022-07-29T08:52:15;4.75;;;3.42;;
55469;SDS011;41334;47.872;16.384;2022-07-29T08:55:17;6.30;;;3.63;;
55469;SDS011;41334;47.872;16.384;2022-07-29T08:58:22;8.82;;;3.90;;
55469;SDS011;41334;47.872;16.384;2022-07-29T09:01:27;4.90;;;3.38;;
55469;SDS011;41334;47.872;16.384;2022-07-29T09:04:42;4.95;;;3.50;;
55469;SDS011;41334;47.872;16.384;2022-07-29T09:07:44;4.65;;;3.42;;
55469;SDS011;41334;47.872;16.384;2022-07-29T09:10:49;6.10;;;3.20;;
55469;SDS011;41334;47.872;16.384;2022-07-29T09:13:52;5.47;;;3.10;;
55469;SDS011;41334;47.872;16.384;2022-07-29T09:16:54;5.57;;;3.22;;
55469;SDS011;41334;47.872;16.384;2022-07-29T09:20:08;6.68;;;2.95;;
55469;SDS011;41334;47.872;16.384;2022-07-29T09:23:12;3.35;;;2.92;;
55469;SDS011;41334;47.872;16.384;2022-07-29T09:26:27;5.05;;;3.28;;
55469;SDS011;41334;47.872;16.384;2022-07-29T09:35:58;3.88;;;2.75;;
55469;SDS011;41334;47.872;16.384;2022-07-29T09:39:07;8.23;;;3.15;;
55469;SDS011;41334;47.872;16.384;2022-07-29T09:42:09;7.70;;;3.08;;
55469;SDS011;41334;47.872;16.384;2022-07-29T09:45:12;5.72;;;2.72;;
55469;SDS011;41334;47.872;16.384;2022-07-29T09:48:26;4.47;;;2.70;;
55469;SDS011;41334;47.872;16.384;2022-07-29T09:51:28;9.50;;;3.30;;
55469;SDS011;41334;47.872;16.384;2022-07-29T09:54:39;5.78;;;3.50;;
55469;SDS011;41334;47.872;16.384;2022-07-29T09:57:41;6.13;;;2.72;;
55469;SDS011;41334;47.872;16.384;2022-07-29T10:00:43;3.65;;;2.90;;
55469;SDS011;41334;47.872;16.384;2022-07-29T10:03:52;4.35;;;2.40;;
55469;SDS011;41334;47.872;16.384;2022-07-29T10:07:01;9.45;;;2.80;;
55469;SDS011;41334;47.872;16.384;2022-07-29T10:10:05;3.53;;;2.20;;
55469;SDS011;41334;47.872;16.384;2022-07-29T10:13:09;3.50;;;2.35;;
55469;SDS011;41334;47.872;16.384;2022-07-29T10:16:16;5.53;;;2.17;;
55469;SDS011;41334;47.872;16.384;2022-07-29T10:19:19;5.63;;;2.80;;
55469;SDS011;41334;47.872;16.384;2022-07-29T10:22:21;4.70;;;2.58;;
55469;SDS011;41334;47.872;16.384;2022-07-29T10:25:44;6.03;;;2.60;;
55469;SDS011;41334;47.872;16.384;2022-07-29T10:28:47;8.55;;;3.55;;
55469;SDS011;41334;47.872;16.384;2022-07-29T10:35:18;2.45;;;1.98;;
55469;SDS011;41334;47.872;16.384;2022-07-29T10:44:50;4.78;;;2.03;;
55469;SDS011;41334;47.872;16.384;2022-07-29T10:48:04;3.20;;;2.50;;
55469;SDS011;41334;47.872;16.384;2022-07-29T10:51:08;4.47;;;2.75;;
55469;SDS011;41334;47.872;16.384;2022-07-29T10:54:13;6.30;;;2.90;;
55469;SDS011;41334;47.872;16.384;2022-07-29T10:57:29;6.03;;;2.65;;
55469;SDS011;41334;47.872;16.384;2022-07-29T11:00:53;3.72;;;2.45;;
55469;SDS011;41334;47.872;16.384;2022-07-29T11:03:57;3.30;;;2.22;;
55469;SDS011;41334;47.872;16.384;2022-07-29T11:13:44;4.53;;;2.30;;
55469;SDS011;41334;47.872;16.384;2022-07-29T11:16:59;5.35;;;2.70;;
55469;SDS011;41334;47.872;16.384;2022-07-29T11:23:34;6.15;;;2.72;;
55469;SDS011;41334;47.872;16.384;2022-07-29T11:26:43;3.80;;;2.22;;
55469;SDS011;41334;47.872;16.384;2022-07-29T11:29:50;3.58;;;2.80;;
55469;SDS011;41334;47.872;16.384;2022-07-29T11:32:53;4.25;;;2.63;;
55469;SDS011;41334;47.872;16.384;2022-07-29T11:36:13;8.27;;;2.78;;
55469;SDS011;41334;47.872;16.384;2022-07-29T11:39:26;3.38;;;2.20;;
55469;SDS011;41334;47.872;16.384;2022-07-29T11:42:38;4.13;;;2.28;;
55469;SDS011;41334;47.872;16.384;2022-07-29T11:46:01;9.98;;;2.80;;
55469;SDS011;41334;47.872;16.384;2022-07-29T11:49:04;4.60;;;2.47;;
55469;SDS011;41334;47.872;16.384;2022-07-29T11:52:10;4.35;;;2.33;;
55469;SDS011;41334;47.872;16.384;2022-07-29T11:55:16;9.90;;;2.67;;
55469;SDS011;41334;47.872;16.384;2022-07-29T11:58:21;3.78;;;2.40;;
55469;SDS011;41334;47.872;16.384;2022-07-29T12:01:25;3.08;;;2.50;;
55469;SDS011;41334;47.872;16.384;2022-07-29T12:04:28;6.72;;;3.63;;
55469;SDS011;41334;47.872;16.384;2022-07-29T12:07:31;3.55;;;2.20;;
55469;SDS011;41334;47.872;16.384;2022-07-29T12:10:36;8.45;;;2.55;;
55469;SDS011;41334;47.872;16.384;2022-07-29T12:13:38;2.78;;;2.17;;
55469;SDS011;41334;47.872;16.384;2022-07-29T12:16:41;2.70;;;2.28;;
55469;SDS011;41334;47.872;16.384;2022-07-29T12:19:44;9.00;;;2.38;;
55469;SDS011;41334;47.872;16.384;2022-07-29T12:22:46;6.13;;;2.50;;
55469;SDS011;41334;47.872;16.384;2022-07-29T12:25:49;4.88;;;2.72;;
55469;SDS011;41334;47.872;16.384;2022-07-29T12:28:54;4.95;;;2.38;;
55469;SDS011;41334;47.872;16.384;2022-07-29T12:31:57;4.82;;;2.25;;
55469;SDS011;41334;47.872;16.384;2022-07-29T12:35:18;7.22;;;2.30;;
55469;SDS011;41334;47.872;16.384;2022-07-29T12:38:21;4.93;;;2.05;;
55469;SDS011;41334;47.872;16.384;2022-07-29T12:41:23;3.03;;;2.20;;
55469;SDS011;41334;47.872;16.384;2022-07-29T12:44:30;6.30;;;2.20;;
55469;SDS011;41334;47.872;16.384;2022-07-29T12:47:51;6.40;;;2.45;;
55469;SDS011;41334;47.872;16.384;2022-07-29T12:54:04;6.82;;;2.35;;
55469;SDS011;41334;47.872;16.384;2022-07-29T12:57:08;2.75;;;2.38;;
55469;SDS011;41334;47.872;16.384;2022-07-29T13:00:23;7.93;;;2.63;;
55469;SDS011;41334;47.872;16.384;2022-07-29T13:03:25;8.32;;;2.33;;
55469;SDS011;41334;47.872;16.384;2022-07-29T13:06:31;5.95;;;2.30;;
55469;SDS011;41334;47.872;16.384;2022-07-29T13:09:46;6.68;;;2.00;;
55469;SDS011;41334;47.872;16.384;2022-07-29T13:13:01;4.32;;;1.80;;
55469;SDS011;41334;47.872;16.384;2022-07-29T13:16:07;3.20;;;2.15;;
55469;SDS011;41334;47.872;16.384;2022-07-29T13:19:10;6.43;;;1.88;;
55469;SDS011;41334;47.872;16.384;2022-07-29T13:22:15;4.27;;;2.07;;
55469;SDS011;41334;47.872;16.384;2022-07-29T13:25:26;20.23;;;5.60;;
55469;SDS011;41334;47.872;16.384;2022-07-29T13:28:33;4.35;;;2.22;;
55469;SDS011;41334;47.872;16.384;2022-07-29T13:31:35;5.13;;;1.92;;
55469;SDS011;41334;47.872;16.384;2022-07-29T13:34:37;4.25;;;2.60;;
55469;SDS011;41334;47.872;16.384;2022-07-29T13:37:39;4.82;;;2.45;;
55469;SDS011;41334;47.872;16.384;2022-07-29T13:40:41;7.40;;;2.65;;
55469;SDS011;41334;47.872;16.384;2022-07-29T13:43:43;3.50;;;2.30;;
55469;SDS011;41334;47.872;16.384;2022-07-29T13:46:45;3.53;;;2.42;;
55469;SDS011;41334;47.872;16.384;2022-07-29T13:49:47;6.63;;;3.40;;
55469;SDS011;41334;47.872;16.384;2022-07-29T13:52:49;3.45;;;1.70;;
55469;SDS011;41334;47.872;16.384;2022-07-29T13:55:52;5.30;;;2.22;;
55469;SDS011;41334;47.872;16.384;2022-07-29T13:58:54;3.58;;;2.90;;
55469;SDS011;41334;47.872;16.384;2022-07-29T14:01:56;4.32;;;2.83;;
55469;SDS011;41334;47.872;16.384;2022-07-29T14:04:58;4.28;;;2.70;;
55469;SDS011;41334;47.872;16.384;2022-07-29T14:08:03;3.40;;;2.40;;
55469;SDS011;41334;47.872;16.384;2022-07-29T14:11:05;2.33;;;2.00;;
55469;SDS011;41334;47.872;16.384;2022-07-29T14:14:07;3.72;;;2.70;;
55469;SDS011;41334;47.872;16.384;2022-07-29T14:17:09;6.18;;;2.55;;
55469;SDS011;41334;47.872;16.384;2022-07-29T14:20:11;3.72;;;2.20;;
55469;SDS011;41334;47.872;16.384;2022-07-29T14:23:12;4.32;;;2.10;;
55469;SDS011;41334;47.872;16.384;2022-07-29T14:26:16;2.72;;;1.42;;
55469;SDS011;41334;47.872;16.384;2022-07-29T14:29:24;5.18;;;1.90;;
55469;SDS011;41334;47.872;16.384;2022-07-29T14:32:38;3.50;;;1.98;;
55469;SDS011;41334;47.872;16.384;2022-07-29T14:35:40;2.50;;;1.83;;
55469;SDS011;41334;47.872;16.384;2022-07-29T14:38:42;2.20;;;1.58;;
55469;SDS011;41334;47.872;16.384;2022-07-29T14:41:44;5.15;;;2.10;;
55469;SDS011;41334;47.872;16.384;2022-07-29T14:44:45;4.38;;;2.30;;
55469;SDS011;41334;47.872;16.384;2022-07-29T14:47:49;2.80;;;2.20;;
55469;SDS011;41334;47.872;16.384;2022-07-29T14:50:57;5.32;;;2.75;;
55469;SDS011;41334;47.872;16.384;2022-07-29T14:54:05;3.33;;;2.47;;
55469;SDS011;41334;47.872;16.384;2022-07-29T14:57:06;4.82;;;2.22;;
55469;SDS011;41334;47.872;16.384;2022-07-29T15:00:08;2.92;;;2.30;;
55469;SDS011;41334;47.872;16.384;2022-07-29T15:03:11;3.33;;;2.13;;
55469;SDS011;41334;47.872;16.384;2022-07-29T15:06:24;3.63;;;2.55;;
55469;SDS011;41334;47.872;16.384;2022-07-29T15:09:26;3.20;;;2.20;;
55469;SDS011;41334;47.872;16.384;2022-07-29T15:12:40;3.92;;;2.80;;
55469;SDS011;41334;47.872;16.384;2022-07-29T15:15:43;3.05;;;2.40;;
55469;SDS011;41334;47.872;16.384;2022-07-29T15:18:48;5.18;;;2.70;;
55469;SDS011;41334;47.872;16.384;2022-07-29T15:22:00;7.32;;;2.70;;
55469;SDS011;41334;47.872;16.384;2022-07-29T15:25:12;5.13;;;2.70;;
55469;SDS011;41334;47.872;16.384;2022-07-29T15:28:13;4.80;;;2.67;;
55469;SDS011;41334;47.872;16.384;2022-07-29T15:31:15;5.25;;;2.85;;
55469;SDS011;41334;47.872;16.384;2022-07-29T15:34:17;4.45;;;2.72;;
55469;SDS011;41334;47.872;16.384;2022-07-29T15:37:19;4.15;;;2.47;;
55469;SDS011;41334;47.872;16.384;2022-07-29T15:40:23;4.35;;;2.80;;
55469;SDS011;41334;47.872;16.384;2022-07-29T15:43:25;8.48;;;2.30;;
55469;SDS011;41334;47.872;16.384;2022-07-29T15:46:27;4.13;;;2.40;;
55469;SDS011;41334;47.872;16.384;2022-07-29T15:49:47;4.60;;;2.90;;
55469;SDS011;41334;47.872;16.384;2022-07-29T15:52:50;4.78;;;2.60;;
55469;SDS011;41334;47.872;16.384;2022-07-29T15:55:54;3.17;;;2.40;;
55469;SDS011;41334;47.872;16.384;2022-07-29T15:58:56;4.75;;;2.20;;
55469;SDS011;41334;47.872;16.384;2022-07-29T16:01:59;3.60;;;2.08;;
55469;SDS011;41334;47.872;16.384;2022-07-29T16:05:01;4.05;;;2.28;;
55469;SDS011;41334;47.872;16.384;2022-07-29T16:08:03;3.58;;;2.35;;
55469;SDS011;41334;47.872;16.384;2022-07-29T16:11:05;3.58;;;2.42;;
55469;SDS011;41334;47.872;16.384;2022-07-29T16:14:06;3.28;;;2.10;;
55469;SDS011;41334;47.872;16.384;2022-07-29T16:17:10;4.05;;;2.10;;
55469;SDS011;41334;47.872;16.384;2022-07-29T16:23:17;5.18;;;2.30;;
55469;SDS011;41334;47.872;16.384;2022-07-29T16:26:19;3.95;;;2.50;;
55469;SDS011;41334;47.872;16.384;2022-07-29T16:29:21;3.83;;;2.80;;
55469;SDS011;41334;47.872;16.384;2022-07-29T16:32:23;3.60;;;2.00;;
55469;SDS011;41334;47.872;16.384;2022-07-29T16:35:25;4.53;;;2.17;;
55469;SDS011;41334;47.872;16.384;2022-07-29T16:38:40;5.13;;;2.50;;
55469;SDS011;41334;47.872;16.384;2022-07-29T16:41:48;3.33;;;2.15;;
55469;SDS011;41334;47.872;16.384;2022-07-29T16:44:50;3.25;;;1.92;;
55469;SDS011;41334;47.872;16.384;2022-07-29T16:47:52;4.43;;;2.33;;
55469;SDS011;41334;47.872;16.384;2022-07-29T16:51:00;2.83;;;1.90;;
55469;SDS011;41334;47.872;16.384;2022-07-29T16:54:02;4.75;;;2.30;;
55469;SDS011;41334;47.872;16.384;2022-07-29T16:57:04;4.28;;;2.10;;
55469;SDS011;41334;47.872;16.384;2022-07-29T17:00:06;3.00;;;2.17;;
55469;SDS011;41334;47.872;16.384;2022-07-29T17:03:08;3.83;;;1.98;;
55469;SDS011;41334;47.872;16.384;2022-07-29T17:06:11;3.85;;;2.17;;
55469;SDS011;41334;47.872;16.384;2022-07-29T17:09:13;4.72;;;2.40;;
55469;SDS011;41334;47.872;16.384;2022-07-29T17:12:15;3.90;;;2.25;;
55469;SDS011;41334;47.872;16.384;2022-07-29T17:15:18;6.35;;;2.35;;
55469;SDS011;41334;47.872;16.384;2022-07-29T17:18:20;2.72;;;2.05;;
55469;SDS011;41334;47.872;16.384;2022-07-29T17:21:22;5.05;;;2.05;;
55469;SDS011;41334;47.872;16.384;2022-07-29T17:24:25;3.17;;;2.10;;
55469;SDS011;41334;47.872;16.384;2022-07-29T17:27:27;3.13;;;2.47;;
55469;SDS011;41334;47.872;16.384;2022-07-29T17:30:28;4.28;;;2.38;;
55469;SDS011;41334;47.872;16.384;2022-07-29T17:33:30;4.63;;;2.58;;
55469;SDS011;41334;47.872;16.384;2022-07-29T17:36:32;4.03;;;2.35;;
55469;SDS011;41334;47.872;16.384;2022-07-29T17:39:34;3.22;;;2.35;;
55469;SDS011;41334;47.872;16.384;2022-07-29T17:42:36;3.72;;;2.45;;
55469;SDS011;41334;47.872;16.384;2022-07-29T17:45:38;6.20;;;3.10;;
55469;SDS011;41334;47.872;16.384;2022-07-29T17:48:51;5.13;;;3.15;;
55469;SDS011;41334;47.872;16.384;2022-07-29T17:51:53;4.10;;;3.00;;
55469;SDS011;41334;47.872;16.384;2022-07-29T17:55:01;5.63;;;4.25;;
55469;SDS011;41334;47.872;16.384;2022-07-29T17:58:03;4.68;;;3.38;;
55469;SDS011;41334;47.872;16.384;2022-07-29T18:01:04;7.05;;;4.10;;
55469;SDS011;41334;47.872;16.384;2022-07-29T18:04:07;4.13;;;3.45;;
55469;SDS011;41334;47.872;16.384;2022-07-29T18:07:09;5.38;;;3.25;;
55469;SDS011;41334;47.872;16.384;2022-07-29T18:10:11;4.38;;;3.20;;
55469;SDS011;41334;47.872;16.384;2022-07-29T18:13:13;8.23;;;4.32;;
55469;SDS011;41334;47.872;16.384;2022-07-29T18:16:16;4.53;;;3.65;;
55469;SDS011;41334;47.872;16.384;2022-07-29T18:19:19;5.47;;;4.03;;
55469;SDS011;41334;47.872;16.384;2022-07-29T18:22:20;4.40;;;3.53;;
55469;SDS011;41334;47.872;16.384;2022-07-29T18:25:22;7.10;;;4.43;;
55469;SDS011;41334;47.872;16.384;2022-07-29T18:28:24;6.13;;;3.55;;
55469;SDS011;41334;47.872;16.384;2022-07-29T18:31:26;8.45;;;4.60;;
55469;SDS011;41334;47.872;16.384;2022-07-29T18:34:28;5.13;;;4.40;;
55469;SDS011;41334;47.872;16.384;2022-07-29T18:37:30;7.15;;;4.63;;
55469;SDS011;41334;47.872;16.384;2022-07-29T18:40:51;5.25;;;3.97;;
55469;SDS011;41334;47.872;16.384;2022-07-29T18:43:53;5.40;;;4.00;;
55469;SDS011;41334;47.872;16.384;2022-07-29T18:46:55;7.05;;;4.40;;
55469;SDS011;41334;47.872;16.384;2022-07-29T18:49:58;6.05;;;4.38;;
55469;SDS011;41334;47.872;16.384;2022-07-29T18:53:00;8.50;;;4.20;;
55469;SDS011;41334;47.872;16.384;2022-07-29T18:56:03;7.88;;;4.15;;
55469;SDS011;41334;47.872;16.384;2022-07-29T18:59:05;6.95;;;4.47;;
55469;SDS011;41334;47.872;16.384;2022-07-29T19:02:07;6.53;;;4.65;;